Time;durP1;ratioP1;P1;durP2;ratioP2;P2;SDS_P1;SDS_P2;PMS_P1;PMS_P2;Temp;Humidity;BMP_temperature;BMP_pressure;BME280_temperature;BME280_humidity;BME280_pressure;Samples;Min_cycle;Max_cycle;Signal;HPM_P1;HPM_P2
2021/11/22 00:00:19;;;;;;;29.58;17.52;;;7.30;99.90;;;;;;5056127;28;20120;-94
2021/11/22 00:02:47;;;;;;;25.20;16.05;;;7.30;99.90;;;;;;5055801;28;20029;-94
2021/11/22 00:05:13;;;;;;;23.33;15.75;;;7.30;99.90;;;;;;5055508;28;20032;-96
2021/11/22 00:07:39;;;;;;;25.35;15.90;;;7.30;99.90;;;;;;5049089;28;20025;-91
2021/11/22 00:10:06;;;;;;;25.52;15.55;;;7.30;99.90;;;;;;5035730;28;20167;-91
2021/11/22 00:12:33;;;;;;;24.65;15.27;;;7.30;99.90;;;;;;5035916;28;20464;-91
2021/11/22 00:15:00;;;;;;;22.75;14.73;;;7.40;99.90;;;;;;5035614;28;20100;-91
2021/11/22 00:17:26;;;;;;;23.35;13.77;;;7.40;99.90;;;;;;5035703;28;20029;-92
2021/11/22 00:19:52;;;;;;;21.55;13.50;;;7.30;99.90;;;;;;5042751;28;20033;-93
2021/11/22 00:22:17;;;;;;;22.25;13.57;;;7.30;99.90;;;;;;5055908;28;20029;-92
2021/11/22 00:24:43;;;;;;;20.63;13.32;;;7.30;99.90;;;;;;5055135;28;20064;-91
2021/11/22 00:27:09;;;;;;;19.80;12.82;;;7.30;99.90;;;;;;5055315;28;20076;-92
2021/11/22 00:29:35;;;;;;;23.55;13.68;;;7.20;99.90;;;;;;5055230;28;20092;-92
2021/11/22 00:32:03;;;;;;;19.13;13.15;;;7.20;99.90;;;;;;5055126;28;20017;-93
2021/11/22 00:34:30;;;;;;;20.17;13.45;;;7.20;99.90;;;;;;5055299;28;20028;-92
2021/11/22 00:36:56;;;;;;;20.45;12.75;;;7.20;99.90;;;;;;5055097;28;20024;-91
2021/11/22 00:39:22;;;;;;;21.92;14.48;;;7.10;99.90;;;;;;5053221;28;20520;-92
2021/11/22 00:41:47;;;;;;;22.48;14.05;;;7.10;99.90;;;;;;5055017;28;20032;-92
2021/11/22 00:44:14;;;;;;;19.38;12.88;;;7.10;99.90;;;;;;5054815;28;20036;-93
2021/11/22 00:46:40;;;;;;;21.85;13.52;;;7.10;99.90;;;;;;5054813;28;20025;-92
2021/11/22 00:49:06;;;;;;;18.92;12.88;;;7.10;99.90;;;;;;5054769;28;20025;-91
2021/11/22 00:51:32;;;;;;;21.25;13.15;;;7.00;99.90;;;;;;5054731;28;20467;-92
2021/11/22 00:53:58;;;;;;;21.55;13.52;;;7.00;99.90;;;;;;5055552;28;20111;-92
2021/11/22 00:56:24;;;;;;;20.10;12.77;;;7.00;99.90;;;;;;5055459;28;20025;-92
2021/11/22 00:58:50;;;;;;;20.35;13.82;;;6.90;99.90;;;;;;5054292;28;20052;-92
2021/11/22 01:01:16;;;;;;;21.35;13.48;;;6.90;99.90;;;;;;5054821;28;20052;-92
2021/11/22 01:03:42;;;;;;;20.92;13.43;;;6.90;99.90;;;;;;5054862;28;20079;-92
2021/11/22 01:06:08;;;;;;;22.02;14.23;;;6.90;99.90;;;;;;5054348;28;20040;-92
2021/11/22 01:08:34;;;;;;;23.13;13.98;;;6.90;99.90;;;;;;5053992;28;20032;-91
2021/11/22 01:10:59;;;;;;;22.10;13.38;;;6.80;99.90;;;;;;5055287;28;20032;-92
2021/11/22 01:13:25;;;;;;;23.17;14.13;;;6.80;99.90;;;;;;5054447;28;20024;-92
2021/11/22 01:15:51;;;;;;;21.63;13.68;;;6.70;99.90;;;;;;5054118;28;20391;-91
2021/11/22 01:18:17;;;;;;;21.10;13.32;;;6.60;99.90;;;;;;5054365;28;20063;-91
2021/11/22 01:20:42;;;;;;;25.00;14.15;;;6.50;99.90;;;;;;5037276;28;20041;-91
2021/11/22 01:23:12;;;;;;;22.42;14.18;;;6.40;99.90;;;;;;5034504;28;20029;-91
2021/11/22 01:25:39;;;;;;;22.40;14.00;;;6.30;99.90;;;;;;5034185;28;20145;-91
2021/11/22 01:28:06;;;;;;;23.45;13.65;;;6.20;99.90;;;;;;5034024;28;20456;-90
2021/11/22 01:30:32;;;;;;;22.48;13.82;;;6.10;99.90;;;;;;5034115;28;20075;-90
2021/11/22 01:32:58;;;;;;;23.70;14.25;;;6.10;99.90;;;;;;5034423;28;20117;-90
2021/11/22 01:35:24;;;;;;;20.88;12.88;;;5.90;99.90;;;;;;5034332;28;20053;-90
2021/11/22 01:37:50;;;;;;;18.15;12.90;;;5.90;99.90;;;;;;5034045;28;20029;-90
2021/11/22 01:40:19;;;;;;;21.85;13.82;;;5.80;99.90;;;;;;5047599;28;20029;-91
2021/11/22 01:42:46;;;;;;;19.27;13.38;;;5.70;99.90;;;;;;5054182;28;20037;-91
2021/11/22 01:45:15;;;;;;;20.95;13.23;;;5.60;99.90;;;;;;5053726;28;20040;-91
2021/11/22 01:47:42;;;;;;;23.23;14.90;;;5.50;99.90;;;;;;5053891;28;20021;-90
2021/11/22 01:50:10;;;;;;;22.95;14.82;;;5.50;99.90;;;;;;5054432;28;20020;-91
2021/11/22 01:52:39;;;;;;;25.42;15.15;;;5.50;99.90;;;;;;5053715;28;20545;-91
2021/11/22 01:55:09;;;;;;;25.30;15.88;;;5.50;99.90;;;;;;5053613;28;20037;-91
2021/11/22 01:57:35;;;;;;;28.83;15.32;;;5.60;99.90;;;;;;5053578;28;20472;-91
2021/11/22 02:00:05;;;;;;;24.17;14.75;;;5.80;99.90;;;;;;5052775;28;20087;-91
2021/11/22 02:02:31;;;;;;;25.08;15.40;;;5.90;99.90;;;;;;5051845;28;20096;-91
2021/11/22 02:04:57;;;;;;;22.45;15.05;;;5.90;99.90;;;;;;5053507;28;20115;-92
2021/11/22 02:07:24;;;;;;;29.15;16.58;;;6.10;99.90;;;;;;5054481;28;20025;-92
2021/11/22 02:09:50;;;;;;;24.00;15.57;;;6.20;99.90;;;;;;5053517;28;20383;-91
2021/11/22 02:12:16;;;;;;;24.48;15.55;;;6.20;99.90;;;;;;5053659;28;20021;-92
2021/11/22 02:14:41;;;;;;;24.42;15.43;;;6.30;99.90;;;;;;5053712;28;20463;-92
2021/11/22 02:17:09;;;;;;;25.42;16.33;;;6.40;99.90;;;;;;5053221;28;20031;-92
2021/11/22 02:19:38;;;;;;;31.65;16.70;;;6.50;99.90;;;;;;5043444;28;20021;-91
2021/11/22 02:22:04;;;;;;;25.83;16.17;;;6.50;99.90;;;;;;5033311;28;20112;-92
2021/11/22 02:24:30;;;;;;;24.10;16.45;;;6.50;99.90;;;;;;5033110;28;20057;-92
2021/11/22 02:26:56;;;;;;;27.95;16.40;;;6.60;99.90;;;;;;5033918;28;20085;-94
2021/11/22 02:29:22;;;;;;;25.77;17.25;;;6.60;99.90;;;;;;5033915;28;20017;-95
2021/11/22 02:31:48;;;;;;;22.75;16.15;;;6.70;99.90;;;;;;5034087;28;20448;-96
2021/11/22 02:34:14;;;;;;;24.70;16.02;;;6.70;99.90;;;;;;5033410;28;20037;-95
2021/11/22 02:36:39;;;;;;;25.42;17.30;;;6.70;99.90;;;;;;5033170;28;20022;-95
2021/11/22 02:39:06;;;;;;;26.20;16.85;;;6.70;99.90;;;;;;5033460;28;20028;-95
2021/11/22 02:41:34;;;;;;;25.55;16.92;;;6.70;99.90;;;;;;5033197;28;20013;-95
2021/11/22 02:44:00;;;;;;;24.88;16.88;;;6.70;99.90;;;;;;5032941;28;20022;-95
2021/11/22 02:46:26;;;;;;;24.52;16.25;;;6.70;99.90;;;;;;5033114;28;20468;-96
2021/11/22 02:48:52;;;;;;;23.35;15.02;;;6.70;99.90;;;;;;5033345;28;20025;-95
2021/11/22 02:51:18;;;;;;;23.17;16.33;;;6.80;99.90;;;;;;5044322;28;20056;-94
2021/11/22 02:53:43;;;;;;;24.73;15.35;;;6.90;99.90;;;;;;5052950;28;20025;-94
2021/11/22 02:56:10;;;;;;;24.08;16.10;;;6.90;99.90;;;;;;5053013;28;20025;-96
2021/11/22 02:58:37;;;;;;;23.20;15.02;;;6.90;99.90;;;;;;5052912;28;20021;-95
2021/11/22 03:01:06;;;;;;;22.48;14.82;;;7.00;99.90;;;;;;5051208;28;20478;-93
2021/11/22 03:03:33;;;;;;;21.98;15.13;;;7.00;99.90;;;;;;5052679;28;20101;-94
2021/11/22 03:06:08;;;;;;;24.70;16.55;;;7.10;99.90;;;;;;5053230;28;20478;-93
2021/11/22 03:08:35;;;;;;;25.73;16.77;;;7.10;99.90;;;;;;5052774;28;20116;-94
2021/11/22 03:11:01;;;;;;;30.73;18.60;;;7.10;99.90;;;;;;5052745;28;20025;-94
2021/11/22 03:13:27;;;;;;;28.85;17.80;;;7.00;99.90;;;;;;5052738;28;20375;-95
2021/11/22 03:15:52;;;;;;;30.27;17.30;;;7.00;99.90;;;;;;5051034;28;20063;-93
2021/11/22 03:18:18;;;;;;;24.13;15.25;;;7.00;99.90;;;;;;5052744;28;20029;-95
2021/11/22 03:20:44;;;;;;;24.48;15.00;;;7.00;99.90;;;;;;5044576;28;20420;-93
2021/11/22 03:23:09;;;;;;;24.00;14.98;;;7.00;99.90;;;;;;5034066;28;20040;-94
2021/11/22 03:25:35;;;;;;;22.42;14.70;;;6.90;99.90;;;;;;5032440;28;20132;-93
2021/11/22 03:28:01;;;;;;;21.65;13.35;;;6.80;99.90;;;;;;5033087;28;20075;-94
2021/11/22 03:30:27;;;;;;;21.80;14.15;;;6.70;99.90;;;;;;5037207;28;20025;-94
2021/11/22 03:32:52;;;;;;;25.35;15.25;;;6.50;99.90;;;;;;5054649;28;20025;-93
2021/11/22 03:35:18;;;;;;;29.67;17.23;;;6.40;99.90;;;;;;5056481;28;20021;-93
2021/11/22 03:37:44;;;;;;;26.38;16.65;;;6.30;99.90;;;;;;5048439;28;20029;-93
2021/11/22 03:40:10;;;;;;;27.48;16.55;;;6.10;99.90;;;;;;5036168;28;20021;-93
2021/11/22 03:42:40;;;;;;;26.67;16.67;;;6.10;99.90;;;;;;5036107;28;20101;-94
2021/11/22 03:45:09;;;;;;;30.73;17.63;;;6.00;99.90;;;;;;5038145;28;20117;-94
2021/11/22 03:47:35;;;;;;;27.67;16.80;;;5.90;99.90;;;;;;5053774;28;20021;-94
2021/11/22 03:50:03;;;;;;;26.80;16.92;;;5.90;99.90;;;;;;5036016;28;20021;-93
2021/11/22 03:52:29;;;;;;;28.98;17.73;;;6.00;99.90;;;;;;5035931;28;20040;-94
2021/11/22 03:54:55;;;;;;;24.55;16.58;;;6.00;99.90;;;;;;5036080;28;20029;-93
2021/11/22 03:57:20;;;;;;;27.60;16.73;;;6.00;99.90;;;;;;5035766;28;20494;-87
2021/11/22 03:59:46;;;;;;;27.35;16.80;;;6.00;99.90;;;;;;5036183;28;20467;-83
2021/11/22 04:02:12;;;;;;;24.63;16.13;;;6.00;99.90;;;;;;5036480;28;20459;-83
2021/11/22 04:04:38;;;;;;;25.42;15.85;;;6.10;99.90;;;;;;5036066;28;20061;-82
2021/11/22 13:46:21;;;;;;;8.43;4.53;;;7.20;99.90;;;;;;5094575;27;20390;-92
2021/11/22 13:48:49;;;;;;;10.00;4.88;;;7.10;99.90;;;;;;5092061;28;20032;-91
2021/11/22 13:51:23;;;;;;;7.93;4.38;;;7.10;99.90;;;;;;5091145;28;20489;-89
2021/11/22 13:53:49;;;;;;;9.93;4.22;;;7.10;99.90;;;;;;5090854;28;20078;-90
2021/11/22 13:56:41;;;;;;;9.52;4.13;;;7.00;99.90;;;;;;5090660;28;20086;-90
2021/11/22 13:59:15;;;;;;;7.97;3.88;;;7.00;99.90;;;;;;5086819;28;20474;-90
2021/11/22 14:02:05;;;;;;;9.70;4.63;;;7.00;99.90;;;;;;5090506;28;20052;-91
2021/11/22 14:04:41;;;;;;;11.27;5.53;;;7.10;99.90;;;;;;5080715;28;20521;-90
2021/11/22 14:07:12;;;;;;;8.02;3.42;;;7.00;99.90;;;;;;5090683;28;20463;-91
2021/11/22 14:09:38;;;;;;;6.90;4.03;;;7.00;99.90;;;;;;5090314;28;20017;-88
2021/11/22 14:12:05;;;;;;;27.90;19.08;;;6.90;99.90;;;;;;5091139;28;20021;-85
2021/11/22 14:14:32;;;;;;;5.53;3.83;;;6.80;99.90;;;;;;5091527;28;20024;-90
2021/11/22 14:17:01;;;;;;;6.97;3.88;;;6.80;99.90;;;;;;5090253;28;20474;-90
2021/11/22 14:19:28;;;;;;;6.47;4.28;;;6.70;99.90;;;;;;5090408;28;20035;-90
2021/11/22 14:22:07;;;;;;;8.93;4.03;;;6.60;99.90;;;;;;5090281;28;20034;-90
2021/11/22 14:24:35;;;;;;;10.38;5.50;;;6.50;99.90;;;;;;5091189;28;20081;-89
2021/11/22 14:27:01;;;;;;;6.43;3.97;;;6.50;99.90;;;;;;5090081;28;20028;-89
2021/11/22 14:29:28;;;;;;;9.50;4.28;;;6.50;99.90;;;;;;5091101;28;20092;-91
2021/11/22 14:31:57;;;;;;;7.22;4.05;;;6.50;99.90;;;;;;5089990;28;20020;-90
2021/11/22 14:34:25;;;;;;;7.20;4.20;;;6.50;99.90;;;;;;5091068;28;20063;-89
2021/11/22 14:36:55;;;;;;;5.03;3.53;;;6.40;99.90;;;;;;5089793;28;20432;-88
2021/11/22 14:39:38;;;;;;;7.00;5.50;;;6.40;99.90;;;;;;5090880;28;20060;-94
2021/11/22 14:42:10;;;;;;;8.93;5.70;;;6.40;99.90;;;;;;5089561;28;20039;-89
2021/11/22 14:44:50;;;;;;;9.70;6.43;;;6.30;99.90;;;;;;5089489;28;20145;-92
2021/11/22 14:47:32;;;;;;;7.47;5.63;;;6.40;99.90;;;;;;5090291;28;20021;-92
2021/11/22 14:50:22;;;;;;;5.80;3.58;;;6.30;99.90;;;;;;5089713;28;20067;-90
2021/11/22 14:53:08;;;;;;;5.53;3.87;;;6.30;99.90;;;;;;5090771;28;20110;-91
2021/11/22 14:55:34;;;;;;;6.93;4.22;;;6.20;99.90;;;;;;5089268;28;20257;-90
2021/11/22 14:58:00;;;;;;;7.07;3.70;;;6.20;99.90;;;;;;5076199;28;20035;-91
2021/11/22 15:00:39;;;;;;;5.38;3.90;;;6.10;99.90;;;;;;5075920;28;20025;-89
2021/11/22 15:03:25;;;;;;;16.77;8.93;;;6.10;99.90;;;;;;5075857;28;20035;-89
2021/11/22 15:05:53;;;;;;;8.23;5.38;;;6.10;99.90;;;;;;5076227;28;20483;-90
2021/11/22 15:08:27;;;;;;;25.77;15.75;;;6.10;99.90;;;;;;5076550;28;20047;-90
2021/11/22 15:10:56;;;;;;;31.80;19.08;;;6.10;99.90;;;;;;5075651;28;20024;-90
2021/11/22 15:13:23;;;;;;;116.88;40.90;;;6.10;99.90;;;;;;5075603;28;20028;-89
2021/11/22 15:15:49;;;;;;;89.50;31.67;;;6.00;99.90;;;;;;5076572;28;20032;-89
2021/11/22 15:18:16;;;;;;;58.40;19.33;;;6.00;99.90;;;;;;5075601;28;20487;-91
2021/11/22 15:20:42;;;;;;;37.55;15.57;;;6.10;99.90;;;;;;5086855;28;20024;-89
2021/11/22 15:23:39;;;;;;;29.13;12.02;;;6.10;99.90;;;;;;5075888;28;20028;-90
2021/11/22 15:26:04;;;;;;;24.73;13.15;;;6.10;99.90;;;;;;5076812;28;20470;-90
2021/11/22 15:28:30;;;;;;;25.83;16.23;;;6.00;99.90;;;;;;5075209;28;20033;-89
2021/11/22 15:31:01;;;;;;;32.08;16.85;;;6.00;99.90;;;;;;5074783;28;20028;-89
2021/11/22 15:33:27;;;;;;;38.67;17.85;;;5.90;99.90;;;;;;5075053;28;20021;-86
2021/11/22 15:35:53;;;;;;;56.20;19.30;;;5.90;99.90;;;;;;5076131;28;20093;-89
2021/11/22 15:38:18;;;;;;;34.80;14.70;;;5.90;99.90;;;;;;5075251;28;20025;-90
2021/11/22 15:40:44;;;;;;;47.88;17.75;;;5.80;99.90;;;;;;5074964;28;20433;-89
2021/11/22 15:43:10;;;;;;;50.25;18.55;;;5.80;99.90;;;;;;5068120;28;20470;-90
2021/11/22 15:45:36;;;;;;;45.22;17.65;;;5.80;99.90;;;;;;5054749;28;20102;-90
2021/11/22 15:48:02;;;;;;;47.40;20.92;;;5.70;99.90;;;;;;5055124;28;20067;-89
2021/11/22 15:50:28;;;;;;;64.72;25.60;;;5.70;99.90;;;;;;5055162;28;20017;-90
2021/11/22 15:52:53;;;;;;;37.88;16.50;;;5.70;99.90;;;;;;5055928;28;20029;-90
2021/11/22 15:55:19;;;;;;;20.40;9.82;;;5.70;99.90;;;;;;5064508;28;20430;-91
2021/11/22 15:57:45;;;;;;;25.90;12.75;;;5.50;99.90;;;;;;5077189;28;20032;-92
2021/11/22 16:00:12;;;;;;;14.65;8.82;;;5.50;99.90;;;;;;5058552;28;20040;-92
2021/11/22 16:02:38;;;;;;;11.27;6.57;;;5.50;99.90;;;;;;5060579;28;20025;-91
2021/11/22 16:05:04;;;;;;;20.55;12.40;;;5.50;99.90;;;;;;5054711;28;20029;-90
2021/11/22 16:07:30;;;;;;;14.52;9.20;;;5.50;99.90;;;;;;5055429;28;20024;-92
2021/11/22 16:09:55;;;;;;;13.55;10.23;;;5.40;99.90;;;;;;5054313;28;20506;-90
2021/11/22 16:12:21;;;;;;;14.57;8.90;;;5.50;99.90;;;;;;5055068;28;20061;-90
2021/11/22 16:14:47;;;;;;;11.13;6.95;;;5.50;99.90;;;;;;5054732;28;20035;-91
2021/11/22 16:17:13;;;;;;;17.15;7.38;;;5.50;99.90;;;;;;5054769;28;20025;-90
2021/11/22 16:19:40;;;;;;;11.15;6.10;;;5.50;99.90;;;;;;5063977;28;20055;-91
2021/11/22 16:22:06;;;;;;;8.77;5.85;;;5.40;99.90;;;;;;5069719;28;20032;-90
2021/11/22 16:24:32;;;;;;;8.32;5.68;;;5.40;99.90;;;;;;5074290;28;20031;-90
2021/11/22 16:27:00;;;;;;;11.73;6.63;;;5.50;99.90;;;;;;5071670;28;20017;-90
2021/11/22 16:29:27;;;;;;;9.77;6.20;;;5.40;99.90;;;;;;5071576;28;20021;-90
2021/11/22 16:31:53;;;;;;;12.10;6.45;;;5.50;99.90;;;;;;5060326;28;20047;-88
2021/11/22 16:34:19;;;;;;;11.43;6.28;;;5.40;99.90;;;;;;5054622;28;20029;-94
2021/11/22 16:36:49;;;;;;;11.35;6.50;;;5.40;99.90;;;;;;5054750;28;20032;-90
2021/11/22 16:39:16;;;;;;;14.05;7.82;;;5.40;99.90;;;;;;5054798;28;20025;-87
2021/11/22 16:41:42;;;;;;;205.82;147.43;;;5.40;99.90;;;;;;5054530;28;20029;-91
2021/11/22 16:44:08;;;;;;;8.88;5.65;;;5.30;99.90;;;;;;5053620;28;20048;-89
2021/11/22 16:46:34;;;;;;;11.15;6.47;;;5.30;99.90;;;;;;5053952;28;20029;-92
2021/11/22 16:49:00;;;;;;;9.38;5.53;;;5.30;99.90;;;;;;5053630;28;20025;-90
2021/11/22 16:51:26;;;;;;;10.80;5.85;;;5.30;99.90;;;;;;5053837;28;20352;-89
2021/11/22 16:53:52;;;;;;;13.02;7.13;;;5.30;99.90;;;;;;5053658;28;20025;-90
2021/11/22 16:56:19;;;;;;;10.68;5.90;;;5.20;99.90;;;;;;5053597;28;20115;-90
2021/11/22 16:58:47;;;;;;;15.32;8.00;;;5.20;99.90;;;;;;5053658;28;20053;-90
2021/11/22 17:01:13;;;;;;;20.38;9.20;;;5.20;99.90;;;;;;5054587;28;20035;-91
2021/11/22 17:03:40;;;;;;;32.67;13.18;;;5.20;99.90;;;;;;5053520;28;20088;-89
2021/11/22 17:06:06;;;;;;;16.60;7.55;;;5.20;99.90;;;;;;5053277;28;20078;-88
2021/11/22 17:08:32;;;;;;;8.57;4.47;;;5.10;99.90;;;;;;5053196;28;20017;-89
2021/11/22 17:10:58;;;;;;;10.88;5.30;;;5.10;99.90;;;;;;5053480;28;20078;-88
2021/11/22 17:13:24;;;;;;;8.73;4.50;;;5.00;99.90;;;;;;5053207;28;20151;-89
2021/11/22 17:15:49;;;;;;;5.43;4.43;;;5.00;99.90;;;;;;5053265;28;20025;-89
2021/11/22 17:18:17;;;;;;;9.10;5.25;;;5.00;99.90;;;;;;5053123;28;20029;-90
2021/11/22 17:20:44;;;;;;;8.52;5.13;;;5.00;99.90;;;;;;5052817;28;20024;-89
2021/11/22 17:23:10;;;;;;;7.60;4.60;;;5.00;99.90;;;;;;5053274;28;20025;-88
2021/11/22 17:25:36;;;;;;;8.50;4.80;;;5.00;99.90;;;;;;5053541;28;20029;-89
2021/11/22 17:28:02;;;;;;;9.70;5.63;;;5.00;99.90;;;;;;5054095;28;20057;-88
2021/11/22 17:30:29;;;;;;;7.32;5.10;;;5.00;99.90;;;;;;5052904;28;20028;-89
2021/11/22 17:32:55;;;;;;;8.05;5.18;;;5.00;99.90;;;;;;5052943;28;20540;-89
2021/11/22 17:35:21;;;;;;;7.10;5.03;;;5.00;99.90;;;;;;5052363;28;20052;-89
2021/11/22 17:37:47;;;;;;;9.32;5.22;;;5.00;99.90;;;;;;5054060;28;20021;-89
2021/11/22 17:40:15;;;;;;;6.53;5.30;;;5.00;99.90;;;;;;5052671;28;20490;-89
2021/11/22 17:42:42;;;;;;;11.70;6.60;;;5.00;99.90;;;;;;5067844;28;20032;-89
2021/11/22 17:45:11;;;;;;;9.15;5.72;;;5.00;99.90;;;;;;5072530;28;20057;-90
2021/11/22 17:47:38;;;;;;;14.40;7.40;;;5.00;99.90;;;;;;5072941;28;20027;-89
2021/11/22 17:50:04;;;;;;;12.95;7.05;;;4.90;99.90;;;;;;5074119;28;20078;-89
2021/11/22 17:52:31;;;;;;;44.08;21.73;;;5.00;99.90;;;;;;5072575;28;20056;-89
2021/11/22 17:54:57;;;;;;;22.95;10.52;;;5.00;99.90;;;;;;5072758;28;20028;-88
2021/11/22 17:57:23;;;;;;;58.70;23.38;;;4.90;99.90;;;;;;5072686;28;20024;-89
2021/11/22 17:59:50;;;;;;;85.28;35.50;;;5.00;99.90;;;;;;5072790;28;20075;-89
2021/11/22 18:02:16;;;;;;;106.07;36.08;;;5.00;99.90;;;;;;5073771;28;20021;-89
2021/11/22 18:04:42;;;;;;;117.78;50.13;;;4.90;99.90;;;;;;5074090;28;20028;-88
2021/11/22 18:07:08;;;;;;;134.43;67.38;;;4.90;99.90;;;;;;5072710;28;20017;-90
2021/11/22 18:09:33;;;;;;;140.23;80.07;;;5.00;99.90;;;;;;5072619;28;20115;-90
2021/11/22 18:12:00;;;;;;;38.58;22.45;;;4.90;99.90;;;;;;5072544;28;20021;-90
2021/11/22 18:14:26;;;;;;;11.82;6.55;;;4.90;99.90;;;;;;5072862;28;20483;-90
2021/11/22 18:16:53;;;;;;;19.70;12.20;;;4.90;99.90;;;;;;5073660;28;20025;-90
2021/11/22 18:19:19;;;;;;;48.53;23.63;;;4.80;99.90;;;;;;5072802;28;20028;-89
2021/11/22 18:21:45;;;;;;;61.40;25.00;;;4.80;99.90;;;;;;5056825;28;20392;-91
2021/11/22 18:24:10;;;;;;;21.25;11.75;;;4.80;99.90;;;;;;5052455;28;20037;-89
2021/11/22 18:26:36;;;;;;;53.58;23.50;;;4.80;99.90;;;;;;5052237;28;20548;-87
2021/11/22 18:29:02;;;;;;;101.60;39.90;;;4.70;99.90;;;;;;5055433;28;20024;-88
2021/11/22 18:31:33;;;;;;;83.00;35.05;;;4.70;99.90;;;;;;5054608;28;20092;-88
2021/11/22 18:33:59;;;;;;;106.93;42.10;;;4.70;99.90;;;;;;5056282;28;20480;-88
2021/11/22 18:36:26;;;;;;;60.90;23.65;;;4.70;99.90;;;;;;5056788;28;20467;-88
2021/11/22 18:38:51;;;;;;;66.22;25.10;;;4.70;99.90;;;;;;5057851;28;20025;-90
2021/11/22 18:41:17;;;;;;;54.13;20.35;;;4.70;99.90;;;;;;5063147;28;20043;-88
2021/11/22 18:43:43;;;;;;;36.42;15.73;;;4.70;99.90;;;;;;5075879;28;20027;-88
2021/11/22 18:46:09;;;;;;;33.00;13.75;;;4.80;99.90;;;;;;5076956;28;20123;-88
2021/11/22 18:48:34;;;;;;;63.53;26.98;;;4.80;99.90;;;;;;5075927;28;20471;-90
2021/11/22 18:51:00;;;;;;;35.47;13.70;;;4.80;99.90;;;;;;5077394;28;20021;-89
2021/11/22 18:53:26;;;;;;;32.50;12.88;;;4.80;99.90;;;;;;5075928;28;20123;-89
2021/11/22 18:55:51;;;;;;;38.17;16.10;;;4.80;99.90;;;;;;5068635;28;20036;-89
2021/11/22 18:58:17;;;;;;;45.17;15.82;;;4.80;99.90;;;;;;5056100;28;20061;-88
2021/11/22 19:00:44;;;;;;;43.72;14.38;;;4.80;99.90;;;;;;5057907;28;20029;-87
2021/11/22 19:03:12;;;;;;;63.05;26.38;;;4.80;99.90;;;;;;5066593;28;20036;-96
2021/11/22 19:05:39;;;;;;;16.58;7.93;;;4.90;99.90;;;;;;5073356;28;20086;-90
2021/11/22 19:08:06;;;;;;;30.27;10.93;;;4.80;99.90;;;;;;5075588;28;20460;-88
2021/11/22 19:10:32;;;;;;;27.27;8.60;;;4.80;99.90;;;;;;5075554;28;20020;-89
2021/11/22 19:12:58;;;;;;;42.85;14.00;;;4.90;99.90;;;;;;5075714;28;20020;-89
2021/11/22 19:15:24;;;;;;;32.20;11.43;;;4.80;99.90;;;;;;5074897;28;20115;-88
2021/11/22 19:17:51;;;;;;;28.63;11.13;;;4.80;99.90;;;;;;5075479;28;20020;-89
2021/11/22 19:20:19;;;;;;;19.83;8.15;;;4.80;99.90;;;;;;5075133;28;20376;-86
2021/11/22 19:22:45;;;;;;;20.13;8.43;;;4.70;99.90;;;;;;5075024;28;20044;-86
2021/11/22 19:25:11;;;;;;;25.90;9.18;;;4.70;99.90;;;;;;5076130;28;20263;-88
2021/11/22 19:27:38;;;;;;;18.40;8.32;;;4.60;99.90;;;;;;5074914;28;20540;-87
2021/11/22 19:30:06;;;;;;;22.30;9.10;;;4.60;99.90;;;;;;5058399;28;20048;-87
2021/11/22 19:32:34;;;;;;;102.25;33.13;;;4.50;99.90;;;;;;5054694;28;20025;-89
2021/11/22 19:35:00;;;;;;;59.85;20.95;;;4.40;99.90;;;;;;5054935;28;20056;-87
2021/11/22 19:37:26;;;;;;;35.70;17.00;;;4.40;99.90;;;;;;5055022;28;20471;-88
2021/11/22 19:39:52;;;;;;;31.85;13.85;;;4.30;99.90;;;;;;5061938;28;20078;-90
2021/11/22 19:42:18;;;;;;;34.75;14.65;;;4.30;99.90;;;;;;5055845;28;20082;-86
2021/11/22 19:44:43;;;;;;;33.22;14.07;;;4.30;99.90;;;;;;5054126;28;20404;-86
2021/11/22 19:47:09;;;;;;;29.48;14.60;;;4.20;99.90;;;;;;5054067;28;20025;-86
2021/11/22 19:49:37;;;;;;;36.65;16.83;;;4.20;99.90;;;;;;5054247;28;20433;-89
2021/11/22 19:52:05;;;;;;;39.28;19.08;;;4.20;99.90;;;;;;5055621;28;20028;-85
2021/11/22 19:54:30;;;;;;;48.42;23.95;;;4.10;99.90;;;;;;5056447;28;20028;-84
2021/11/22 19:56:56;;;;;;;43.80;22.00;;;4.10;99.90;;;;;;5053953;28;20025;-84
2021/11/22 19:59:24;;;;;;;88.50;46.67;;;4.00;99.90;;;;;;5053778;28;20029;-84
2021/11/22 20:01:50;;;;;;;87.50;41.15;;;3.90;99.90;;;;;;5053692;28;20065;-83
2021/11/22 20:04:17;;;;;;;89.50;39.17;;;3.90;99.90;;;;;;5054859;28;20100;-84
2021/11/22 20:06:45;;;;;;;71.63;33.25;;;3.90;99.90;;;;;;5059773;28;20421;-86
2021/11/22 20:09:12;;;;;;;64.43;30.35;;;3.90;99.90;;;;;;5053484;28;20033;-85
2021/11/22 20:11:37;;;;;;;46.40;22.85;;;3.80;99.90;;;;;;5054725;28;20032;-86
2021/11/22 20:14:04;;;;;;;44.10;21.88;;;3.80;99.90;;;;;;5053584;28;20391;-85
2021/11/22 20:16:32;;;;;;;45.50;22.40;;;3.80;99.90;;;;;;5053845;28;20517;-85
2021/11/22 20:18:59;;;;;;;41.85;20.63;;;3.80;99.90;;;;;;5069674;28;20382;-84
2021/11/22 20:21:25;;;;;;;30.58;17.15;;;3.70;99.90;;;;;;5073297;28;20486;-87
2021/11/22 20:23:52;;;;;;;30.95;16.83;;;3.70;99.90;;;;;;5073297;28;20124;-86
2021/11/22 20:26:23;;;;;;;27.25;15.35;;;3.70;99.90;;;;;;5073304;28;20025;-85
2021/11/22 20:28:49;;;;;;;25.85;15.40;;;3.70;99.90;;;;;;5073205;28;20497;-85
2021/11/22 20:31:15;;;;;;;29.20;16.45;;;3.70;99.90;;;;;;5073117;28;20036;-85
2021/11/22 20:33:40;;;;;;;29.92;16.15;;;3.70;99.90;;;;;;5055890;28;20025;-84
2021/11/22 20:36:06;;;;;;;33.95;15.95;;;3.60;99.90;;;;;;5058367;28;20387;-85
2021/11/22 20:38:32;;;;;;;32.47;17.38;;;3.60;99.90;;;;;;5073134;28;20398;-85
2021/11/22 20:41:00;;;;;;;46.95;20.77;;;3.60;99.90;;;;;;5074222;28;20029;-85
2021/11/22 20:43:27;;;;;;;39.25;20.20;;;3.60;99.90;;;;;;5074128;28;20055;-86
2021/11/22 20:45:58;;;;;;;46.58;23.08;;;3.60;99.90;;;;;;5072604;28;20051;-85
2021/11/22 20:48:24;;;;;;;40.42;20.35;;;3.60;99.90;;;;;;5073000;28;20016;-87
2021/11/22 20:50:50;;;;;;;47.78;22.90;;;3.60;99.90;;;;;;5065603;28;20112;-84
2021/11/22 20:53:16;;;;;;;50.08;23.23;;;3.60;99.90;;;;;;5052875;28;20475;-83
2021/11/22 20:55:41;;;;;;;47.55;22.13;;;3.60;99.90;;;;;;5053665;28;20033;-84
2021/11/22 20:58:07;;;;;;;75.75;29.15;;;3.60;99.90;;;;;;5052752;28;20029;-84
2021/11/22 21:00:35;;;;;;;103.35;38.65;;;3.60;99.90;;;;;;5053983;28;20029;-84
2021/11/22 21:03:01;;;;;;;95.55;36.83;;;3.60;99.90;;;;;;5056944;28;20442;-84
2021/11/22 21:05:27;;;;;;;134.13;50.58;;;3.60;99.90;;;;;;5072509;28;20024;-85
2021/11/22 21:07:52;;;;;;;118.55;45.60;;;3.60;99.90;;;;;;5066349;28;20025;-85
2021/11/22 21:10:18;;;;;;;98.20;37.90;;;3.60;99.90;;;;;;5053877;28;20048;-85
2021/11/22 21:12:46;;;;;;;51.45;24.20;;;3.70;99.90;;;;;;5052496;28;20028;-84
2021/11/22 21:15:12;;;;;;;55.88;24.83;;;3.70;99.90;;;;;;5052312;28;20397;-84
2021/11/22 21:17:38;;;;;;;38.08;19.30;;;3.70;99.90;;;;;;5054645;28;20497;-84
2021/11/22 21:20:07;;;;;;;35.85;17.55;;;3.70;99.90;;;;;;5053661;28;20025;-85
2021/11/22 21:22:34;;;;;;;34.60;18.17;;;3.70;99.90;;;;;;5052406;28;20029;-85
2021/11/22 21:25:00;;;;;;;30.17;14.40;;;3.70;99.90;;;;;;5052343;28;20040;-85
2021/11/22 21:27:26;;;;;;;26.73;13.90;;;3.80;99.90;;;;;;5052270;28;20029;-84
2021/11/22 21:29:53;;;;;;;21.30;13.05;;;3.70;99.90;;;;;;5052304;28;20028;-85
2021/11/22 21:32:20;;;;;;;23.10;13.32;;;3.70;99.90;;;;;;5068976;28;20021;-84
2021/11/22 21:34:47;;;;;;;19.48;12.23;;;3.70;99.90;;;;;;5052198;28;20126;-84
2021/11/22 21:37:12;;;;;;;26.10;13.73;;;3.70;99.90;;;;;;5053377;28;20101;-84
2021/11/22 21:39:39;;;;;;;46.83;20.88;;;3.80;99.90;;;;;;5053335;28;20053;-84
2021/11/22 21:42:06;;;;;;;54.42;24.48;;;3.70;99.90;;;;;;5052325;28;20036;-85
2021/11/22 21:44:35;;;;;;;45.25;20.50;;;3.80;99.90;;;;;;5053117;28;20053;-83
2021/11/22 21:47:07;;;;;;;47.22;20.42;;;3.80;99.90;;;;;;5052136;28;20025;-84
2021/11/22 21:49:34;;;;;;;64.65;23.77;;;3.80;99.90;;;;;;5051942;28;20021;-83
2021/11/22 21:52:00;;;;;;;62.90;27.80;;;3.90;99.90;;;;;;5052300;28;20421;-83
2021/11/22 21:54:26;;;;;;;66.63;39.50;;;3.90;99.90;;;;;;5053243;28;20104;-84
2021/11/22 21:56:53;;;;;;;62.40;42.28;;;3.90;99.90;;;;;;5054726;28;20089;-83
2021/11/22 21:59:20;;;;;;;71.95;46.38;;;3.90;99.90;;;;;;5071942;28;20110;-84
2021/11/22 22:01:46;;;;;;;54.90;38.50;;;3.80;99.90;;;;;;5071892;28;20021;-84
2021/11/22 22:04:13;;;;;;;55.60;40.50;;;3.70;99.90;;;;;;5071831;28;20040;-84
2021/11/22 22:06:42;;;;;;;54.67;39.50;;;3.80;99.90;;;;;;5073267;28;20474;-84
2021/11/22 22:09:12;;;;;;;42.42;29.23;;;3.70;99.90;;;;;;5075846;28;20085;-83
2021/11/22 22:11:39;;;;;;;46.08;29.00;;;3.70;99.90;;;;;;5075890;28;20025;-84
2021/11/22 22:14:07;;;;;;;26.55;15.32;;;3.70;99.90;;;;;;5075803;28;20492;-84
2021/11/22 22:16:34;;;;;;;39.65;21.48;;;3.70;99.90;;;;;;5073324;28;20032;-83
2021/11/22 22:19:00;;;;;;;28.50;14.10;;;3.70;99.90;;;;;;5075882;28;20440;-84